Time;durP1;ratioP1;P1;durP2;ratioP2;P2;SDS_P1;SDS_P2;PMS_P1;PMS_P2;Temp;Humidity;BMP_temperature;BMP_pressure;BME280_temperature;BME280_humidity;BME280_pressure;Samples;Min_cycle;Max_cycle;Signal;HPM_P1;HPM_P2
2022/07/24 04:01:43;;;;;;;18.92;16.42;;;16.90;99.90;;;;;;5377629;23;20052;-73
2022/07/24 04:04:08;;;;;;;17.70;15.27;;;17.00;99.90;;;;;;4973712;28;20039;-72
2022/07/24 04:06:35;;;;;;;18.30;15.80;;;16.90;99.90;;;;;;4978404;28;20027;-72
2022/07/24 04:09:04;;;;;;;18.55;16.55;;;17.00;99.90;;;;;;4978403;28;20039;-73
2022/07/24 04:11:30;;;;;;;16.83;15.05;;;17.00;99.90;;;;;;4976739;28;20078;-73
2022/07/24 04:13:56;;;;;;;17.10;15.30;;;17.00;99.90;;;;;;4977545;28;20027;-72
2022/07/24 04:16:22;;;;;;;17.27;15.27;;;17.00;99.90;;;;;;4977940;28;20433;-72
2022/07/24 04:18:48;;;;;;;18.65;16.00;;;17.10;99.90;;;;;;4978409;28;20041;-72
2022/07/24 04:21:14;;;;;;;18.88;15.82;;;17.10;99.90;;;;;;4976049;28;20047;-72
2022/07/24 04:23:40;;;;;;;17.10;15.30;;;17.10;99.90;;;;;;4978189;28;20396;-72
2022/07/24 04:26:06;;;;;;;17.95;15.48;;;17.00;99.90;;;;;;4977905;28;20051;-72
2022/07/24 04:28:31;;;;;;;19.23;15.77;;;17.10;99.90;;;;;;4977896;28;20126;-72
2022/07/24 04:30:57;;;;;;;18.67;16.02;;;17.20;99.90;;;;;;4978040;28;20039;-72
2022/07/24 04:33:23;;;;;;;18.60;16.63;;;17.20;99.90;;;;;;4978013;28;20560;-72
2022/07/24 04:35:48;;;;;;;18.45;16.42;;;17.20;99.90;;;;;;4976405;28;20042;-72
2022/07/24 04:38:14;;;;;;;16.38;14.68;;;17.20;99.90;;;;;;4978143;28;20046;-72
2022/07/24 04:40:40;;;;;;;19.58;16.52;;;17.30;99.90;;;;;;4976451;28;20094;-72
2022/07/24 04:43:05;;;;;;;18.63;15.50;;;17.30;99.90;;;;;;4977981;28;20039;-72
2022/07/24 04:45:31;;;;;;;17.67;15.82;;;17.30;99.90;;;;;;4977417;28;20035;-72
2022/07/24 04:47:57;;;;;;;16.75;14.95;;;17.40;99.90;;;;;;4977887;28;20043;-72
2022/07/24 04:50:22;;;;;;;17.20;15.40;;;17.50;99.90;;;;;;4977533;28;20554;-72
2022/07/24 04:52:48;;;;;;;17.63;15.82;;;17.50;99.90;;;;;;4977653;28;20118;-72
2022/07/24 04:55:13;;;;;;;18.65;15.55;;;17.60;99.90;;;;;;4977596;28;20405;-72
2022/07/24 04:57:39;;;;;;;18.52;15.48;;;17.60;99.90;;;;;;4977608;28;20027;-72
2022/07/24 05:00:07;;;;;;;16.73;14.73;;;17.60;99.90;;;;;;4977525;28;20047;-72
2022/07/24 05:02:33;;;;;;;16.45;14.32;;;17.60;99.90;;;;;;4976184;28;20059;-72
2022/07/24 05:04:59;;;;;;;17.20;14.48;;;17.60;99.90;;;;;;4977368;28;20066;-72
2022/07/24 05:07:25;;;;;;;16.70;14.85;;;17.70;99.90;;;;;;4978033;28;20042;-72
2022/07/24 05:09:50;;;;;;;18.30;14.65;;;17.80;99.90;;;;;;4977454;28;20043;-72
2022/07/24 05:12:16;;;;;;;15.35;13.75;;;17.80;99.90;;;;;;4977685;28;20039;-72
2022/07/24 05:14:41;;;;;;;16.95;13.82;;;17.90;99.90;;;;;;4978869;28;20042;-72
2022/07/24 05:17:07;;;;;;;18.02;15.02;;;18.10;99.90;;;;;;4980308;28;20110;-72
2022/07/24 05:19:32;;;;;;;15.05;13.50;;;18.10;99.90;;;;;;4977505;28;20043;-72
2022/07/24 05:21:58;;;;;;;15.30;13.52;;;18.20;99.90;;;;;;4977426;28;20137;-72
2022/07/24 05:24:24;;;;;;;16.42;14.60;;;18.30;99.90;;;;;;4977437;28;20087;-72
2022/07/24 05:26:50;;;;;;;15.80;14.10;;;18.40;99.90;;;;;;4977664;28;20028;-72
2022/07/24 05:29:16;;;;;;;15.98;14.27;;;18.50;99.90;;;;;;4977789;28;20066;-72
2022/07/24 05:31:42;;;;;;;16.27;14.55;;;18.60;99.90;;;;;;4977319;28;20086;-74
2022/07/24 05:34:08;;;;;;;15.45;13.93;;;18.60;99.90;;;;;;4977551;28;20042;-73
2022/07/24 05:36:35;;;;;;;15.07;13.50;;;18.80;99.90;;;;;;4977744;28;20090;-73
2022/07/24 05:39:00;;;;;;;14.98;13.40;;;18.80;99.90;;;;;;4977843;28;20083;-72
2022/07/24 05:41:26;;;;;;;16.38;14.63;;;18.90;99.90;;;;;;4977611;28;20094;-72
2022/07/24 05:43:53;;;;;;;15.13;13.52;;;18.90;99.90;;;;;;4977733;28;20027;-73
2022/07/24 05:46:19;;;;;;;14.73;13.15;;;19.00;99.90;;;;;;4977284;28;20078;-73
2022/07/24 05:48:44;;;;;;;15.65;14.13;;;19.10;99.90;;;;;;4977531;28;20106;-73
2022/07/24 05:51:10;;;;;;;13.82;12.38;;;19.10;99.90;;;;;;4977637;28;20474;-73
2022/07/24 05:53:35;;;;;;;14.57;13.02;;;19.20;99.90;;;;;;4977382;28;20036;-74
2022/07/24 05:56:01;;;;;;;15.27;13.35;;;19.20;99.90;;;;;;4975531;28;20031;-74
2022/07/24 05:58:26;;;;;;;17.88;13.50;;;19.30;99.90;;;;;;4976922;28;20043;-74
2022/07/24 06:00:52;;;;;;;14.52;12.27;;;19.30;99.90;;;;;;4976570;28;20413;-74
2022/07/24 06:03:17;;;;;;;14.30;12.82;;;19.40;99.90;;;;;;4976470;28;20031;-74
2022/07/24 06:05:43;;;;;;;14.95;12.77;;;19.40;99.90;;;;;;4976335;28;20089;-74
2022/07/24 06:08:09;;;;;;;15.40;13.43;;;19.40;99.90;;;;;;4976803;28;20035;-74
2022/07/24 06:10:34;;;;;;;14.50;12.77;;;19.50;99.90;;;;;;4974964;28;20035;-74
2022/07/24 06:13:00;;;;;;;15.25;13.23;;;19.60;99.90;;;;;;4977057;28;20055;-74
2022/07/24 06:15:26;;;;;;;15.90;14.23;;;19.70;99.90;;;;;;4975371;28;20903;-73
2022/07/24 06:17:52;;;;;;;14.45;12.95;;;19.70;99.90;;;;;;4976524;28;20412;-73
2022/07/24 06:20:18;;;;;;;14.48;12.90;;;19.80;99.90;;;;;;4976715;28;20139;-73
2022/07/24 06:22:44;;;;;;;14.55;13.00;;;19.90;99.90;;;;;;4976847;28;20043;-73
2022/07/24 06:25:10;;;;;;;15.43;13.30;;;20.00;99.90;;;;;;4976527;28;20066;-73
2022/07/24 06:27:46;;;;;;;15.80;13.45;;;20.10;99.90;;;;;;4975057;28;20040;-73
2022/07/24 06:30:24;;;;;;;14.65;13.15;;;20.10;99.90;;;;;;4976217;28;20035;-73
2022/07/24 06:32:52;;;;;;;16.10;14.07;;;20.20;99.90;;;;;;4976737;28;20035;-75
2022/07/24 06:35:17;;;;;;;14.27;12.77;;;20.30;99.90;;;;;;4974899;28;20035;-73
2022/07/24 06:37:43;;;;;;;16.00;13.65;;;20.40;99.90;;;;;;4976504;28;20035;-74
2022/07/24 06:40:09;;;;;;;14.55;13.02;;;20.40;99.90;;;;;;4974981;28;20043;-73
2022/07/24 06:42:35;;;;;;;16.05;13.55;;;20.50;99.90;;;;;;4976371;28;20083;-73
2022/07/24 06:45:01;;;;;;;16.40;13.13;;;20.60;99.90;;;;;;4975935;28;20106;-73
2022/07/24 06:47:26;;;;;;;15.18;12.75;;;20.70;99.90;;;;;;4976117;28;20035;-73
2022/07/24 06:49:53;;;;;;;14.63;13.02;;;20.80;99.90;;;;;;4974595;28;20501;-73
2022/07/24 06:52:19;;;;;;;13.68;12.27;;;21.00;99.90;;;;;;4975837;28;20385;-73
2022/07/24 06:54:45;;;;;;;16.30;12.90;;;21.10;99.90;;;;;;4976016;28;20114;-73
2022/07/24 06:57:10;;;;;;;15.05;13.45;;;21.20;99.90;;;;;;4976146;28;20041;-73
2022/07/24 06:59:36;;;;;;;14.50;13.00;;;21.30;99.90;;;;;;4975821;28;20043;-73
2022/07/24 07:02:01;;;;;;;14.55;13.00;;;21.50;99.90;;;;;;4975788;28;20445;-73
2022/07/24 07:04:27;;;;;;;14.57;12.98;;;21.60;99.90;;;;;;4975802;28;20035;-72
2022/07/24 07:06:52;;;;;;;14.52;12.85;;;21.60;99.90;;;;;;4975921;28;20042;-73
2022/07/24 07:09:18;;;;;;;16.63;13.50;;;21.80;99.90;;;;;;4975753;28;20046;-72
2022/07/24 07:11:44;;;;;;;14.95;11.85;;;22.00;99.90;;;;;;4975356;28;20031;-73
2022/07/24 07:14:09;;;;;;;12.30;10.98;;;22.20;99.90;;;;;;4973525;28;20047;-73
2022/07/24 07:16:35;;;;;;;12.02;10.65;;;22.40;99.90;;;;;;4975872;28;20172;-72
2022/07/24 07:19:01;;;;;;;14.30;10.32;;;22.70;99.90;;;;;;4975763;28;20444;-73
2022/07/24 07:21:26;;;;;;;12.15;10.85;;;22.90;99.90;;;;;;4975781;28;20073;-73
2022/07/24 07:23:52;;;;;;;11.63;10.43;;;23.00;99.90;;;;;;4975316;28;20434;-74
2022/07/24 07:26:18;;;;;;;11.65;9.88;;;23.20;99.90;;;;;;4975176;28;20497;-72
2022/07/24 07:28:44;;;;;;;11.27;10.10;;;23.30;99.90;;;;;;4975270;28;20042;-72
2022/07/24 07:31:09;;;;;;;12.15;10.60;;;23.50;99.90;;;;;;4975380;28;20043;-76
2022/07/24 07:33:35;;;;;;;12.60;10.48;;;23.50;99.90;;;;;;4975595;28;20042;-72
2022/07/24 07:36:00;;;;;;;11.05;9.95;;;23.70;99.90;;;;;;4975350;28;20043;-72
2022/07/24 07:38:26;;;;;;;11.43;10.07;;;23.80;99.90;;;;;;4975449;28;20035;-72
2022/07/24 07:40:52;;;;;;;11.10;9.68;;;24.00;99.90;;;;;;4976556;28;20043;-72
2022/07/24 07:43:17;;;;;;;12.18;10.27;;;24.00;99.90;;;;;;4978571;28;20033;-72
2022/07/24 07:45:43;;;;;;;11.10;9.98;;;24.30;99.90;;;;;;4978078;28;20046;-72
2022/07/24 07:48:08;;;;;;;11.80;10.10;;;24.50;99.90;;;;;;4978815;28;20050;-73
2022/07/24 07:50:34;;;;;;;12.82;10.30;;;24.60;99.90;;;;;;4979006;28;20037;-74
2022/07/24 07:52:59;;;;;;;11.57;10.30;;;24.70;99.90;;;;;;4978669;28;20055;-72
2022/07/24 07:55:25;;;;;;;11.82;10.27;;;25.00;99.90;;;;;;4978432;28;20462;-73
2022/07/24 07:57:51;;;;;;;11.05;9.98;;;25.30;99.90;;;;;;4978981;28;20047;-72
2022/07/24 08:00:17;;;;;;;10.85;9.80;;;25.30;99.90;;;;;;4978141;28;20489;-72
2022/07/24 08:02:42;;;;;;;10.30;9.30;;;25.40;99.30;;;;;;4978863;28;20035;-72
2022/07/24 08:05:09;;;;;;;11.98;10.60;;;25.70;99.40;;;;;;4978403;28;20040;-72
2022/07/24 08:07:34;;;;;;;11.30;10.13;;;25.70;99.50;;;;;;4978244;28;20028;-72
2022/07/24 08:10:00;;;;;;;11.35;10.25;;;26.00;99.00;;;;;;4978512;28;20042;-72
2022/07/24 08:12:26;;;;;;;13.23;10.57;;;26.10;97.80;;;;;;4978173;28;20465;-72
2022/07/24 08:14:51;;;;;;;11.43;9.52;;;26.30;97.60;;;;;;4977832;28;20039;-72
2022/07/24 08:17:17;;;;;;;10.82;9.70;;;26.40;96.90;;;;;;4978521;28;20035;-72
2022/07/24 08:19:42;;;;;;;12.02;9.50;;;26.60;96.00;;;;;;4978394;28;20441;-72
2022/07/24 08:22:08;;;;;;;12.10;10.13;;;26.70;95.50;;;;;;4978074;28;20036;-72
2022/07/24 08:24:34;;;;;;;10.57;9.48;;;26.80;95.50;;;;;;4976560;28;20074;-72
2022/07/24 08:26:59;;;;;;;10.88;9.48;;;26.90;95.40;;;;;;4978138;28;20421;-72
2022/07/24 08:29:26;;;;;;;11.32;9.80;;;27.10;94.40;;;;;;4976805;28;20051;-72
2022/07/24 08:31:52;;;;;;;11.40;10.02;;;27.20;93.70;;;;;;4978109;28;20036;-72
2022/07/24 08:34:17;;;;;;;10.38;9.25;;;27.20;93.40;;;;;;4977775;28;20039;-73
2022/07/24 08:36:45;;;;;;;10.85;9.73;;;27.30;93.80;;;;;;4976469;28;20090;-73
2022/07/24 08:39:12;;;;;;;11.00;9.50;;;27.30;92.60;;;;;;4976926;28;20039;-79
2022/07/24 08:41:38;;;;;;;10.80;9.70;;;27.20;92.50;;;;;;4978015;28;20046;-74
2022/07/24 08:44:05;;;;;;;11.27;9.40;;;27.40;92.90;;;;;;4977979;28;20058;-74
2022/07/24 08:46:32;;;;;;;10.95;9.82;;;27.20;93.10;;;;;;4977915;28;20856;-73
2022/07/24 08:49:01;;;;;;;11.07;9.73;;;27.40;93.10;;;;;;4978339;28;20068;-83
2022/07/24 08:51:32;;;;;;;11.43;9.73;;;27.50;92.30;;;;;;4977653;28;20041;-73
2022/07/24 08:53:58;;;;;;;11.30;9.57;;;27.50;92.10;;;;;;4976239;28;20087;-72
2022/07/24 08:56:24;;;;;;;10.88;9.52;;;27.50;92.00;;;;;;4977773;28;20043;-81
2022/07/24 08:58:49;;;;;;;11.85;9.63;;;27.30;92.40;;;;;;4977867;28;20074;-76
2022/07/24 09:01:15;;;;;;;12.20;9.93;;;27.50;92.80;;;;;;4976822;28;20521;-74
2022/07/24 09:03:45;;;;;;;10.68;9.57;;;27.40;91.90;;;;;;4977974;28;20048;-77
2022/07/24 09:06:12;;;;;;;10.88;9.77;;;27.60;92.10;;;;;;4976238;28;20189;-77
2022/07/24 09:08:43;;;;;;;12.18;10.25;;;27.80;92.30;;;;;;4977665;28;20046;-73
2022/07/24 09:11:09;;;;;;;10.45;9.35;;;28.10;90.80;;;;;;4977328;28;20407;-73
2022/07/24 09:16:22;;;;;;;10.65;9.55;;;28.30;90.00;;;;;;4976558;28;20043;-76
2022/07/24 09:18:50;;;;;;;11.13;9.40;;;28.60;89.60;;;;;;4973152;28;20040;-76
2022/07/24 09:21:17;;;;;;;11.82;10.02;;;28.60;88.00;;;;;;4973217;28;20410;-76
2022/07/24 09:23:43;;;;;;;10.30;9.27;;;28.60;87.10;;;;;;4975290;28;20038;-74
2022/07/24 09:26:09;;;;;;;10.77;9.63;;;28.60;86.40;;;;;;4966497;28;20490;-74
2022/07/24 09:28:53;;;;;;;11.32;10.18;;;28.90;87.00;;;;;;4960215;28;20043;-74
2022/07/24 09:31:21;;;;;;;10.50;9.00;;;28.90;88.20;;;;;;4973016;28;20069;-75
2022/07/24 09:33:46;;;;;;;10.35;9.35;;;28.90;84.70;;;;;;4979240;28;20215;-74
2022/07/24 09:36:14;;;;;;;10.43;9.52;;;29.20;86.10;;;;;;4967660;28;20164;-74
2022/07/24 09:38:47;;;;;;;11.35;9.35;;;29.30;86.30;;;;;;4971411;28;20063;-74
2022/07/24 09:41:22;;;;;;;9.65;8.32;;;29.50;85.70;;;;;;4989339;28;20560;-74
2022/07/24 09:44:00;;;;;;;11.88;9.57;;;29.60;83.70;;;;;;4994581;28;20051;-74
2022/07/24 09:46:27;;;;;;;11.18;10.07;;;29.70;82.30;;;;;;4974205;28;20536;-74
2022/07/24 09:48:56;;;;;;;11.18;9.93;;;29.50;82.00;;;;;;4957289;28;20036;-74
2022/07/24 09:51:23;;;;;;;9.90;8.77;;;29.40;83.90;;;;;;4966090;28;20812;-74
2022/07/24 09:53:54;;;;;;;9.43;8.52;;;29.40;81.00;;;;;;4966343;28;20038;-74
2022/07/24 09:56:20;;;;;;;11.10;8.68;;;29.50;80.30;;;;;;4962463;28;20118;-75
2022/07/24 09:58:46;;;;;;;9.52;8.50;;;29.80;81.00;;;;;;4982154;28;20445;-75
2022/07/24 10:01:13;;;;;;;10.05;8.88;;;30.20;77.60;;;;;;4979364;28;20048;-75
2022/07/24 10:03:42;;;;;;;9.75;8.82;;;30.50;77.50;;;;;;4963711;28;20094;-78
2022/07/24 10:06:12;;;;;;;9.32;8.43;;;30.60;76.70;;;;;;4977014;28;20035;-75
2022/07/24 10:08:40;;;;;;;8.95;8.02;;;30.70;78.20;;;;;;4976373;28;20023;-74
2022/07/24 10:11:05;;;;;;;10.38;8.63;;;30.70;75.30;;;;;;4976190;28;20042;-75
2022/07/24 10:13:31;;;;;;;10.30;9.30;;;30.60;76.20;;;;;;4976613;28;20058;-74
2022/07/24 10:16:12;;;;;;;9.02;7.95;;;30.80;76.10;;;;;;4981663;28;20039;-75
2022/07/24 10:18:50;;;;;;;9.80;7.72;;;31.00;76.00;;;;;;4986659;28;20401;-75
2022/07/24 10:21:28;;;;;;;9.43;8.27;;;30.60;73.50;;;;;;4960339;28;20075;-75
2022/07/24 10:24:12;;;;;;;8.75;7.85;;;30.70;71.40;;;;;;4957677;28;20031;-74
2022/07/24 10:26:45;;;;;;;10.15;7.32;;;30.60;70.90;;;;;;4958569;28;20195;-78
2022/07/24 10:29:20;;;;;;;8.07;7.28;;;30.80;71.00;;;;;;4962664;28;20059;-77
2022/07/24 10:31:50;;;;;;;9.55;7.65;;;30.70;71.20;;;;;;4956738;28;20151;-75
2022/07/24 10:34:53;;;;;;;8.50;7.68;;;30.70;70.50;;;;;;4956643;28;20036;-75
2022/07/24 10:37:36;;;;;;;9.27;7.05;;;30.60;70.60;;;;;;4960377;28;20044;-76
2022/07/24 10:40:24;;;;;;;8.38;7.60;;;31.00;71.50;;;;;;4962119;28;20537;-76
2022/07/24 10:43:13;;;;;;;8.00;7.00;;;31.30;69.50;;;;;;4964955;28;20032;-74
2022/07/24 10:45:45;;;;;;;7.75;7.03;;;31.80;69.20;;;;;;4969020;28;20035;-73
2022/07/24 10:48:23;;;;;;;6.85;5.97;;;31.90;68.40;;;;;;4970181;28;20035;-78
2022/07/24 10:51:07;;;;;;;7.25;6.55;;;32.00;67.50;;;;;;4965024;28;20045;-77
2022/07/24 10:53:39;;;;;;;7.35;6.65;;;31.20;65.80;;;;;;4961186;28;20027;-75
2022/07/24 10:56:23;;;;;;;11.65;7.13;;;31.10;66.20;;;;;;4962156;28;20047;-74
2022/07/24 10:59:00;;;;;;;7.22;6.50;;;31.10;65.80;;;;;;4961365;28;20031;-75
2022/07/24 11:01:47;;;;;;;7.68;6.68;;;31.40;65.40;;;;;;4963972;28;20131;-74
2022/07/24 11:04:19;;;;;;;7.72;7.03;;;31.90;64.80;;;;;;4969335;28;20042;-73
2022/07/24 11:06:48;;;;;;;9.65;7.32;;;32.20;65.10;;;;;;4964805;28;20072;-74
2022/07/24 11:09:15;;;;;;;8.52;7.68;;;32.20;63.70;;;;;;4956419;28;20502;-74
2022/07/24 11:12:01;;;;;;;7.53;6.70;;;31.80;63.50;;;;;;4958771;28;20091;-77
2022/07/24 11:14:42;;;;;;;8.15;6.35;;;32.00;63.80;;;;;;4963256;28;20039;-75
2022/07/24 11:17:40;;;;;;;7.43;6.63;;;32.40;65.40;;;;;;4966806;28;20533;-76
2022/07/24 11:20:18;;;;;;;7.20;6.50;;;32.50;61.10;;;;;;4963998;28;20050;-73
2022/07/24 11:22:57;;;;;;;8.13;5.95;;;32.40;60.90;;;;;;4967393;28;20126;-80
2022/07/24 11:25:26;;;;;;;6.60;6.00;;;32.40;62.30;;;;;;4963853;28;20073;-73
2022/07/24 11:27:51;;;;;;;6.57;5.85;;;32.60;60.30;;;;;;4956377;28;20765;-73
2022/07/24 11:30:19;;;;;;;7.30;6.10;;;32.60;58.70;;;;;;4956048;28;20083;-73
2022/07/24 11:32:45;;;;;;;7.82;6.55;;;32.80;58.90;;;;;;4956629;28;20398;-74
2022/07/24 11:35:12;;;;;;;6.85;6.25;;;32.80;60.20;;;;;;4965115;28;20909;-74
2022/07/24 11:37:39;;;;;;;7.03;6.30;;;32.70;61.60;;;;;;4964699;28;20106;-74
2022/07/24 11:40:07;;;;;;;7.15;6.40;;;32.60;60.10;;;;;;4962560;28;20050;-74
2022/07/24 11:42:33;;;;;;;8.38;6.32;;;33.20;59.50;;;;;;4964241;28;20066;-73
2022/07/24 11:45:00;;;;;;;6.60;5.95;;;33.50;59.60;;;;;;4966611;28;20035;-79
2022/07/24 11:47:27;;;;;;;6.50;5.90;;;33.70;57.50;;;;;;4963423;28;20036;-78
2022/07/24 11:49:55;;;;;;;7.03;6.32;;;33.80;56.90;;;;;;4964916;28;20031;-76
2022/07/24 11:52:26;;;;;;;8.82;6.43;;;33.60;57.20;;;;;;4956235;28;20090;-74
2022/07/24 11:54:54;;;;;;;7.65;6.63;;;33.40;57.20;;;;;;4955753;28;20046;-73
2022/07/24 11:57:29;;;;;;;7.10;6.50;;;33.20;57.70;;;;;;4968417;28;20036;-73
2022/07/24 11:59:55;;;;;;;8.13;6.65;;;33.10;58.20;;;;;;4974903;28;20094;-73
2022/07/24 12:02:21;;;;;;;7.10;6.35;;;33.30;58.40;;;;;;4974802;28;20406;-73
2022/07/24 12:04:48;;;;;;;6.80;6.15;;;33.50;56.80;;;;;;4974633;28;20043;-73
2022/07/24 12:07:21;;;;;;;6.63;5.80;;;33.50;56.30;;;;;;4982500;28;20857;-73
2022/07/24 12:09:48;;;;;;;7.07;6.07;;;33.80;57.40;;;;;;4968748;28;20098;-73
2022/07/24 12:12:21;;;;;;;6.80;5.95;;;33.50;59.70;;;;;;4969556;28;20023;-73
2022/07/24 12:14:47;;;;;;;7.20;6.50;;;33.50;58.30;;;;;;4969698;28;20090;-74
2022/07/24 12:17:13;;;;;;;7.32;6.63;;;33.90;56.00;;;;;;4973574;28;20449;-74
2022/07/24 12:19:38;;;;;;;7.03;6.32;;;33.70;58.20;;;;;;4991182;28;20046;-74
2022/07/24 12:22:05;;;;;;;7.07;6.38;;;33.80;57.10;;;;;;4995315;28;20034;-74
2022/07/24 12:24:31;;;;;;;6.95;6.10;;;33.60;58.50;;;;;;4985947;28;20039;-74
2022/07/24 12:26:59;;;;;;;6.95;6.30;;;33.60;57.30;;;;;;4978332;28;20186;-80
2022/07/24 12:29:26;;;;;;;6.88;6.18;;;33.50;57.10;;;;;;4979091;28;20067;-76
2022/07/24 12:32:18;;;;;;;6.97;5.90;;;33.30;55.90;;;;;;4998500;28;20039;-84
2022/07/24 12:34:45;;;;;;;6.65;5.95;;;34.00;55.90;;;;;;4998084;28;20035;-77
2022/07/24 12:37:15;;;;;;;6.65;6.05;;;34.30;54.60;;;;;;4997508;28;20118;-76
2022/07/24 12:39:52;;;;;;;6.70;6.00;;;34.30;55.10;;;;;;4990573;28;20027;-73
2022/07/24 12:42:28;;;;;;;6.20;5.70;;;34.90;55.30;;;;;;4971434;28;20039;-72
2022/07/24 12:44:54;;;;;;;6.80;6.00;;;35.20;52.70;;;;;;4986162;28;20066;-74
2022/07/24 12:47:19;;;;;;;7.03;6.30;;;35.30;52.50;;;;;;4992655;28;20079;-72
2022/07/24 12:49:50;;;;;;;6.70;5.90;;;35.10;52.00;;;;;;4996808;28;20038;-71
2022/07/24 12:52:28;;;;;;;7.47;6.30;;;34.70;53.50;;;;;;4976380;28;20035;-71
2022/07/24 12:54:54;;;;;;;7.25;6.05;;;34.80;53.20;;;;;;4987415;28;20062;-71
2022/07/24 12:57:22;;;;;;;7.97;6.57;;;35.00;53.20;;;;;;4972150;28;20463;-71
2022/07/24 12:59:49;;;;;;;6.95;5.90;;;34.50;55.20;;;;;;4980815;28;20492;-72
2022/07/24 13:02:15;;;;;;;6.40;5.80;;;34.90;53.20;;;;;;4975550;28;20560;-73
2022/07/24 13:04:50;;;;;;;7.55;6.30;;;34.60;54.10;;;;;;4987405;28;20121;-76
2022/07/24 13:07:17;;;;;;;8.15;6.65;;;34.80;54.10;;;;;;4971770;28;20122;-71
2022/07/24 13:09:43;;;;;;;7.25;6.55;;;34.40;53.50;;;;;;4969372;28;20032;-72
2022/07/24 13:12:10;;;;;;;8.57;6.40;;;34.30;54.30;;;;;;4982919;28;20039;-73
2022/07/24 13:14:37;;;;;;;7.25;6.30;;;34.50;54.70;;;;;;4963651;28;20160;-72
2022/07/24 13:17:14;;;;;;;7.28;6.47;;;34.70;53.80;;;;;;4971443;28;20035;-77
2022/07/24 13:19:52;;;;;;;6.60;6.00;;;34.60;54.10;;;;;;4974577;28;20067;-72
2022/07/24 13:22:17;;;;;;;6.78;6.07;;;34.80;55.30;;;;;;4973377;28;20484;-72
2022/07/24 13:24:44;;;;;;;7.18;6.47;;;35.00;52.30;;;;;;4970224;28;20039;-73
2022/07/24 13:27:13;;;;;;;6.38;5.82;;;35.10;53.50;;;;;;4967958;28;20032;-72
2022/07/24 13:29:39;;;;;;;6.65;6.05;;;35.70;52.00;;;;;;4974230;28;20027;-72
2022/07/24 13:32:05;;;;;;;6.60;6.00;;;35.60;51.50;;;;;;4974644;28;20036;-72
2022/07/24 13:34:31;;;;;;;6.80;6.20;;;36.30;52.00;;;;;;4982139;28;20171;-71
2022/07/24 13:36:57;;;;;;;6.43;5.82;;;36.70;51.20;;;;;;4991575;28;20038;-71
2022/07/24 13:39:23;;;;;;;9.77;6.80;;;36.90;51.20;;;;;;4995253;28;20042;-72
2022/07/24 13:41:48;;;;;;;7.35;6.65;;;37.10;49.90;;;;;;4984806;28;21472;-72
2022/07/24 13:44:15;;;;;;;6.53;5.93;;;37.30;50.90;;;;;;4961455;28;20032;-77
2022/07/24 13:46:41;;;;;;;6.55;6.03;;;38.40;48.20;;;;;;4959491;28;20540;-75
2022/07/24 13:49:07;;;;;;;6.15;5.65;;;38.70;48.10;;;;;;4958048;28;20035;-72
2022/07/24 13:51:34;;;;;;;7.07;6.38;;;39.10;45.80;;;;;;4965439;28;20035;-72
2022/07/24 13:54:00;;;;;;;7.00;6.25;;;38.90;46.00;;;;;;4976463;28;20935;-72
2022/07/24 13:56:26;;;;;;;7.07;6.43;;;39.10;45.70;;;;;;4976617;28;20047;-73
2022/07/24 13:58:52;;;;;;;8.13;6.20;;;39.10;45.40;;;;;;4977081;28;20121;-73
2022/07/24 14:01:19;;;;;;;7.18;6.53;;;39.30;47.00;;;;;;4976533;28;20598;-72
2022/07/24 14:03:45;;;;;;;6.32;5.72;;;40.00;45.40;;;;;;4971534;28;20040;-73
2022/07/24 14:06:11;;;;;;;7.72;5.80;;;40.00;44.50;;;;;;4957830;28;20044;-75
2022/07/24 14:08:38;;;;;;;6.63;5.75;;;39.90;44.40;;;;;;4977492;28;20039;-74
2022/07/24 14:11:03;;;;;;;6.80;6.20;;;40.30;42.80;;;;;;4976156;28;20046;-74
2022/07/24 14:13:29;;;;;;;6.78;6.18;;;40.20;43.30;;;;;;4976833;28;20062;-73
2022/07/24 14:15:55;;;;;;;6.78;6.18;;;40.40;44.10;;;;;;4976562;28;20035;-76
2022/07/24 14:18:21;;;;;;;6.57;5.80;;;39.40;42.90;;;;;;4976546;28;20043;-75
2022/07/24 14:20:46;;;;;;;6.28;5.68;;;39.90;43.90;;;;;;4976682;28;20541;-75
2022/07/24 14:23:12;;;;;;;6.47;5.97;;;40.70;43.40;;;;;;4975175;28;20023;-75
2022/07/24 14:25:37;;;;;;;6.68;6.07;;;41.00;43.40;;;;;;4976509;28;20126;-75
2022/07/24 14:28:04;;;;;;;6.38;5.68;;;41.70;41.50;;;;;;4976733;28;20027;-75
2022/07/24 14:30:29;;;;;;;6.50;5.90;;;42.60;41.40;;;;;;4976304;28;20035;-75
2022/07/24 14:32:55;;;;;;;6.00;5.50;;;42.60;40.40;;;;;;4976373;28;20027;-75
2022/07/24 14:35:20;;;;;;;6.28;5.78;;;42.10;40.10;;;;;;4976252;28;20114;-75
2022/07/24 14:37:46;;;;;;;6.43;5.93;;;42.40;41.60;;;;;;4976204;28;20035;-75
2022/07/24 14:40:12;;;;;;;5.90;5.38;;;41.60;41.50;;;;;;4976251;28;20054;-75
2022/07/24 14:42:38;;;;;;;6.10;5.60;;;42.10;40.50;;;;;;4976152;28;20413;-76
2022/07/24 14:45:04;;;;;;;6.32;5.65;;;42.40;40.20;;;;;;4976083;28;20082;-76
2022/07/24 14:47:30;;;;;;;6.32;5.82;;;42.00;40.80;;;;;;4975886;28;20034;-75
2022/07/24 14:49:56;;;;;;;6.05;5.55;;;41.60;41.90;;;;;;4976047;28;20493;-75
2022/07/24 14:52:22;;;;;;;6.40;5.80;;;42.50;39.50;;;;;;4974741;28;20403;-75
2022/07/24 14:54:48;;;;;;;8.18;6.05;;;42.60;40.40;;;;;;4975960;28;20063;-75
2022/07/24 14:57:14;;;;;;;6.70;6.20;;;44.20;37.60;;;;;;4976084;28;20536;-75
2022/07/24 14:59:41;;;;;;;6.70;6.10;;;44.30;37.60;;;;;;4975895;28;20039;-75
2022/07/24 15:02:07;;;;;;;6.50;5.90;;;44.20;38.10;;;;;;4975673;28;20039;-75
2022/07/24 15:04:33;;;;;;;6.53;6.00;;;45.40;37.00;;;;;;4974152;28;20047;-75
2022/07/24 15:06:59;;;;;;;6.90;6.40;;;45.70;36.70;;;;;;4976065;28;20409;-75
2022/07/24 15:09:25;;;;;;;6.85;6.25;;;45.40;36.00;;;;;;4976014;28;20035;-76
2022/07/24 15:11:50;;;;;;;7.13;6.10;;;44.50;36.30;;;;;;4975614;28;20035;-75
2022/07/24 15:14:16;;;;;;;7.05;6.25;;;45.00;37.00;;;;;;4975326;28;20039;-75
2022/07/24 15:16:42;;;;;;;6.43;5.93;;;45.10;37.90;;;;;;4975413;28;20039;-75
2022/07/24 15:19:07;;;;;;;6.57;6.00;;;43.90;37.30;;;;;;4975792;28;20027;-75
2022/07/24 15:21:33;;;;;;;6.97;6.25;;;44.50;36.40;;;;;;4974085;28;20118;-75
2022/07/24 15:23:58;;;;;;;6.38;5.88;;;44.50;36.70;;;;;;4975474;28;20505;-75
2022/07/24 15:26:24;;;;;;;7.53;6.50;;;44.00;37.50;;;;;;4975492;28;20508;-75
2022/07/24 15:28:49;;;;;;;6.68;5.95;;;44.50;36.70;;;;;;4975850;28;20035;-75
2022/07/24 15:31:16;;;;;;;6.40;5.80;;;42.90;37.60;;;;;;4973936;28;20044;-75
2022/07/24 15:33:43;;;;;;;6.55;6.05;;;43.00;37.90;;;;;;4975629;28;20036;-76
2022/07/24 15:36:09;;;;;;;6.43;5.82;;;43.60;37.90;;;;;;4975424;28;20039;-75
2022/07/24 15:38:35;;;;;;;6.38;5.78;;;44.30;36.60;;;;;;4975869;28;20031;-76
2022/07/24 15:41:01;;;;;;;7.22;6.60;;;45.40;36.50;;;;;;4975643;28;20040;-75
2022/07/24 15:43:27;;;;;;;6.43;5.93;;;46.00;34.90;;;;;;4975578;28;20054;-75
2022/07/24 15:45:52;;;;;;;6.65;6.05;;;46.00;34.30;;;;;;4975323;28;20035;-75
2022/07/24 15:48:18;;;;;;;6.25;5.72;;;46.30;34.20;;;;;;4975395;28;20039;-75
2022/07/24 15:50:43;;;;;;;8.20;6.15;;;45.90;35.20;;;;;;4975361;28;20043;-75
2022/07/24 15:53:09;;;;;;;6.50;6.00;;;45.40;34.90;;;;;;4975430;28;20382;-75
2022/07/24 15:55:34;;;;;;;6.15;5.55;;;44.00;35.70;;;;;;4975089;28;20544;-75
2022/07/24 15:58:00;;;;;;;6.82;6.03;;;44.20;36.10;;;;;;4975467;28;20040;-75
2022/07/24 16:00:25;;;;;;;6.00;5.50;;;44.60;37.00;;;;;;4975851;28;20144;-75
2022/07/24 16:02:51;;;;;;;6.40;5.75;;;44.80;36.70;;;;;;4978908;28;20548;-75
2022/07/24 16:05:17;;;;;;;6.43;5.82;;;44.50;36.90;;;;;;4978530;28;20110;-75
2022/07/24 16:07:43;;;;;;;6.15;5.65;;;43.70;37.20;;;;;;4978591;28;20512;-75
2022/07/24 16:10:09;;;;;;;6.93;6.32;;;43.80;35.70;;;;;;4978741;28;20098;-75
2022/07/24 16:12:34;;;;;;;6.50;5.93;;;43.90;36.30;;;;;;4978231;28;20043;-75
2022/07/24 16:15:00;;;;;;;6.97;6.07;;;44.50;36.90;;;;;;4979130;28;20094;-75
2022/07/24 16:17:26;;;;;;;6.30;5.75;;;44.00;37.00;;;;;;4978568;28;20031;-75
2022/07/24 16:19:52;;;;;;;6.35;5.75;;;44.20;36.50;;;;;;4978812;28;20042;-75
2022/07/24 16:22:17;;;;;;;6.10;5.47;;;45.00;35.50;;;;;;4978475;28;20560;-75
2022/07/24 16:24:43;;;;;;;7.15;6.55;;;45.10;35.20;;;;;;4977048;28;20062;-75
2022/07/24 16:27:09;;;;;;;6.72;6.10;;;45.40;34.40;;;;;;4976879;28;20413;-75
2022/07/24 16:29:34;;;;;;;6.55;6.05;;;44.90;35.40;;;;;;4978375;28;20405;-75
2022/07/24 16:32:00;;;;;;;6.57;5.88;;;43.10;38.10;;;;;;4976684;28;20047;-75
2022/07/24 16:34:26;;;;;;;6.65;5.95;;;41.80;38.20;;;;;;4976667;28;20027;-75
2022/07/24 16:36:51;;;;;;;6.55;6.05;;;40.80;42.10;;;;;;4977033;28;20366;-75
2022/07/24 16:39:17;;;;;;;6.57;5.97;;;39.60;41.80;;;;;;4978408;28;20405;-75
2022/07/24 16:41:42;;;;;;;6.35;5.63;;;40.10;40.50;;;;;;4978286;28;20058;-75
2022/07/24 16:44:08;;;;;;;7.35;6.57;;;39.50;41.00;;;;;;4977912;28;20102;-75